Time;durP1;ratioP1;P1;durP2;ratioP2;P2;SDS_P1;SDS_P2;PMS_P1;PMS_P2;Temp;Humidity;BMP_temperature;BMP_pressure;BME280_temperature;BME280_humidity;BME280_pressure;Samples;Min_cycle;Max_cycle;Signal;HPM_P1;HPM_P2
2024/03/07 00:02:20;;;;;;;21.55;11.18;;;7.60;99.90;;;;;;4996436;28;20030;-74
2024/03/07 00:04:46;;;;;;;20.35;10.95;;;7.60;99.90;;;;;;4996703;28;20030;-74
2024/03/07 00:07:12;;;;;;;21.05;11.63;;;7.60;99.90;;;;;;4978990;28;20039;-74
2024/03/07 00:09:38;;;;;;;21.95;11.15;;;7.60;99.90;;;;;;4978499;28;20036;-74
2024/03/07 00:12:05;;;;;;;21.40;10.68;;;7.60;99.90;;;;;;4978800;28;20080;-75
2024/03/07 00:14:35;;;;;;;20.50;10.82;;;7.60;99.90;;;;;;4978458;28;20472;-75
2024/03/07 00:17:01;;;;;;;21.58;11.55;;;7.60;99.90;;;;;;4996292;28;20026;-74
2024/03/07 00:19:26;;;;;;;24.85;12.77;;;7.60;99.90;;;;;;4978494;28;20133;-75
2024/03/07 00:21:53;;;;;;;23.35;12.73;;;7.70;99.90;;;;;;4996226;28;20089;-74
2024/03/07 00:24:19;;;;;;;24.35;14.07;;;7.70;99.90;;;;;;4978155;28;20081;-74
2024/03/07 00:26:45;;;;;;;23.95;12.88;;;7.70;99.90;;;;;;4995084;28;20057;-74
2024/03/07 00:29:11;;;;;;;24.27;13.10;;;7.60;99.90;;;;;;4995913;28;20058;-74
2024/03/07 00:31:36;;;;;;;24.98;13.55;;;7.60;99.90;;;;;;4978067;28;20117;-74
2024/03/07 00:34:02;;;;;;;23.58;12.30;;;7.60;99.90;;;;;;4975088;28;20145;-74
2024/03/07 00:36:28;;;;;;;24.52;12.05;;;7.60;99.90;;;;;;4974851;28;20035;-74
2024/03/07 00:38:53;;;;;;;22.55;12.25;;;7.60;99.90;;;;;;4976693;28;20027;-75
2024/03/07 00:41:19;;;;;;;24.52;12.68;;;7.60;99.90;;;;;;4974850;28;20031;-75
2024/03/07 00:43:45;;;;;;;25.38;12.20;;;7.60;99.90;;;;;;4975120;28;20082;-75
2024/03/07 00:46:10;;;;;;;22.85;11.40;;;7.60;99.90;;;;;;4975199;28;20034;-75
2024/03/07 00:48:37;;;;;;;28.63;13.13;;;7.60;99.90;;;;;;4974612;28;20502;-75
2024/03/07 00:51:06;;;;;;;25.98;12.07;;;7.60;99.90;;;;;;4976278;28;20114;-75
2024/03/07 00:53:32;;;;;;;25.90;12.88;;;7.60;99.90;;;;;;4974451;28;20392;-75
2024/03/07 00:55:57;;;;;;;25.38;12.73;;;7.60;99.90;;;;;;4976208;28;20031;-74
2024/03/07 00:58:23;;;;;;;23.60;12.25;;;7.50;99.90;;;;;;4974456;28;20030;-74
2024/03/07 01:00:49;;;;;;;28.88;13.23;;;7.50;99.90;;;;;;4974884;28;20031;-75
2024/03/07 01:03:17;;;;;;;27.98;13.13;;;7.60;99.90;;;;;;4974771;28;20030;-76
2024/03/07 01:05:43;;;;;;;22.70;11.52;;;7.50;99.90;;;;;;4974380;28;20046;-75
2024/03/07 01:08:09;;;;;;;26.75;12.45;;;7.50;99.90;;;;;;4974730;28;20069;-75
2024/03/07 01:10:35;;;;;;;28.33;13.65;;;7.50;99.90;;;;;;4974354;28;20031;-75
2024/03/07 01:13:02;;;;;;;26.20;13.88;;;7.60;99.90;;;;;;4974633;28;20031;-74
2024/03/07 01:15:32;;;;;;;24.33;11.93;;;7.50;99.90;;;;;;4974112;28;20031;-73
2024/03/07 01:17:58;;;;;;;28.33;12.27;;;7.60;99.90;;;;;;4974515;28;20026;-74
2024/03/07 01:20:25;;;;;;;26.75;13.18;;;7.60;99.90;;;;;;4973882;28;20038;-74
2024/03/07 01:22:51;;;;;;;23.85;12.30;;;7.60;99.90;;;;;;4974333;28;20482;-74
2024/03/07 01:25:18;;;;;;;25.95;11.77;;;7.50;99.90;;;;;;4974370;28;20038;-74
2024/03/07 01:27:44;;;;;;;25.63;12.05;;;7.60;99.90;;;;;;4974269;28;20380;-74
2024/03/07 01:30:10;;;;;;;25.88;13.05;;;7.60;99.90;;;;;;4974219;28;20035;-74
2024/03/07 01:32:36;;;;;;;25.08;12.00;;;7.60;99.90;;;;;;4973712;28;20054;-74
2024/03/07 01:35:01;;;;;;;24.45;13.02;;;7.60;99.90;;;;;;4988985;28;20113;-74
2024/03/07 01:37:28;;;;;;;26.20;12.02;;;7.50;99.90;;;;;;4976758;28;20072;-74
2024/03/07 01:39:54;;;;;;;23.42;12.48;;;7.50;99.90;;;;;;4994840;28;20114;-74
2024/03/07 01:42:20;;;;;;;27.77;13.20;;;7.50;99.90;;;;;;4976750;28;20081;-75
2024/03/07 01:44:46;;;;;;;29.83;14.40;;;7.50;99.90;;;;;;4977431;28;20030;-74
2024/03/07 01:47:12;;;;;;;26.00;12.98;;;7.50;99.90;;;;;;4977105;28;20038;-74
2024/03/07 01:49:38;;;;;;;28.10;13.55;;;7.40;99.90;;;;;;4976779;28;20036;-74
2024/03/07 01:52:05;;;;;;;28.50;13.63;;;7.40;99.90;;;;;;4994382;28;20034;-74
2024/03/07 01:54:30;;;;;;;28.00;13.90;;;7.40;99.90;;;;;;4994211;28;20057;-75
2024/03/07 01:56:56;;;;;;;26.85;12.60;;;7.50;99.90;;;;;;4976901;28;20058;-74
2024/03/07 01:59:23;;;;;;;30.50;14.35;;;7.50;99.90;;;;;;4994113;28;20037;-74
2024/03/07 02:01:50;;;;;;;30.13;14.52;;;7.50;99.90;;;;;;4994298;28;20129;-74
2024/03/07 02:04:15;;;;;;;31.33;14.73;;;7.50;99.90;;;;;;4994284;28;20046;-75
2024/03/07 02:06:41;;;;;;;32.83;15.13;;;7.50;99.90;;;;;;4993765;28;20034;-75
2024/03/07 02:09:07;;;;;;;29.00;14.02;;;7.50;99.90;;;;;;4976821;28;20033;-74
2024/03/07 02:11:32;;;;;;;29.50;14.35;;;7.50;99.90;;;;;;4976625;28;20035;-75
2024/03/07 02:13:59;;;;;;;31.08;13.50;;;7.40;99.90;;;;;;4976904;28;20026;-75
2024/03/07 02:16:25;;;;;;;26.83;13.45;;;7.40;99.90;;;;;;4993845;28;20032;-76
2024/03/07 02:18:50;;;;;;;25.20;13.10;;;7.40;99.90;;;;;;4976789;28;20030;-76
2024/03/07 02:21:16;;;;;;;26.48;13.77;;;7.40;99.90;;;;;;4994193;28;20498;-75
2024/03/07 02:23:42;;;;;;;30.15;14.23;;;7.40;99.90;;;;;;4976232;28;20030;-74
2024/03/07 02:26:08;;;;;;;29.75;14.32;;;7.30;99.90;;;;;;4976509;28;20037;-75
2024/03/07 02:28:34;;;;;;;24.48;13.48;;;7.30;99.90;;;;;;4976285;28;20035;-74
2024/03/07 02:31:00;;;;;;;26.15;12.95;;;7.30;99.90;;;;;;4993866;28;20380;-75
2024/03/07 02:33:26;;;;;;;26.05;12.85;;;7.20;99.90;;;;;;4993250;28;20034;-75
2024/03/07 02:35:52;;;;;;;28.70;14.15;;;7.20;99.90;;;;;;4976840;28;20038;-75
2024/03/07 02:38:19;;;;;;;30.05;13.85;;;7.20;99.90;;;;;;4976582;28;20030;-75
2024/03/07 02:40:46;;;;;;;23.92;12.85;;;7.20;99.90;;;;;;4975902;28;20490;-75
2024/03/07 02:43:12;;;;;;;24.98;13.57;;;7.10;99.90;;;;;;4976532;28;20027;-75
2024/03/07 02:45:37;;;;;;;25.67;12.88;;;7.00;99.90;;;;;;4992973;28;20360;-76
2024/03/07 02:48:09;;;;;;;25.33;13.23;;;7.00;99.90;;;;;;4993204;28;20360;-75
2024/03/07 02:50:37;;;;;;;24.10;12.70;;;7.00;99.90;;;;;;4975930;28;20026;-74
2024/03/07 02:53:04;;;;;;;27.15;12.38;;;7.00;99.90;;;;;;4976132;28;20038;-75
2024/03/07 02:55:31;;;;;;;27.02;12.35;;;6.90;99.90;;;;;;4975666;28;20545;-76
2024/03/07 02:57:58;;;;;;;28.45;12.65;;;6.90;99.90;;;;;;4976004;28;20037;-75
2024/03/07 03:00:29;;;;;;;27.08;12.85;;;6.80;99.90;;;;;;4975643;28;20422;-79
2024/03/07 03:02:56;;;;;;;30.20;13.35;;;6.80;99.90;;;;;;4993688;28;20113;-75
2024/03/07 03:05:22;;;;;;;27.15;12.65;;;6.80;99.90;;;;;;4975860;28;20387;-75
2024/03/07 03:07:54;;;;;;;27.65;12.82;;;6.70;99.90;;;;;;4993017;28;20484;-75
2024/03/07 03:10:28;;;;;;;;;;;6.70;99.90;;;;;;4976537;28;20386;-75
2024/03/07 03:12:57;;;;;;;29.02;12.15;;;6.70;99.90;;;;;;4976194;28;19965;-75
2024/03/07 03:15:23;;;;;;;30.60;13.27;;;6.60;99.90;;;;;;4993450;28;20030;-75
2024/03/07 03:17:49;;;;;;;26.05;12.38;;;6.60;99.90;;;;;;4993080;28;20423;-75
2024/03/07 03:20:57;;;;;;;26.38;12.57;;;6.50;99.90;;;;;;4976027;28;20530;-75
2024/03/07 03:23:03;;;;;;;31.15;13.10;;;6.50;99.90;;;;;;4987327;28;20049;-75
2024/03/07 03:25:29;;;;;;;28.17;13.63;;;6.50;99.90;;;;;;4975421;28;20026;-76
2024/03/07 03:27:55;;;;;;;26.45;13.50;;;6.40;99.90;;;;;;4975987;28;20121;-76
2024/03/07 03:30:21;;;;;;;29.95;13.63;;;6.30;99.90;;;;;;4975893;28;20121;-75
2024/03/07 03:32:48;;;;;;;30.35;12.98;;;6.30;99.90;;;;;;4975011;28;20038;-76
2024/03/07 03:35:15;;;;;;;29.48;13.15;;;6.20;99.90;;;;;;4975255;28;20411;-75
2024/03/07 03:37:44;;;;;;;29.90;13.47;;;6.20;99.90;;;;;;4992718;28;20137;-76
2024/03/07 03:40:11;;;;;;;29.17;13.50;;;6.10;99.90;;;;;;4975718;28;20029;-74
2024/03/07 03:42:40;;;;;;;25.92;12.88;;;6.10;99.90;;;;;;4992667;28;20109;-75
2024/03/07 03:45:07;;;;;;;32.30;14.23;;;6.10;99.90;;;;;;4975788;28;20034;-75
2024/03/07 03:47:37;;;;;;;31.05;13.52;;;6.00;99.90;;;;;;4975115;28;20030;-76
2024/03/07 03:50:08;;;;;;;30.10;14.20;;;6.00;99.90;;;;;;4993112;28;20517;-76
2024/03/07 03:52:37;;;;;;;30.83;13.37;;;6.00;99.90;;;;;;4975045;28;20383;-75
2024/03/07 03:55:06;;;;;;;28.00;13.23;;;6.00;99.90;;;;;;4975728;28;20034;-75
2024/03/07 03:57:33;;;;;;;28.93;13.03;;;5.90;99.90;;;;;;4992614;28;20038;-75
2024/03/07 03:59:59;;;;;;;28.97;13.80;;;5.80;99.90;;;;;;4994487;28;20022;-75
2024/03/07 04:02:25;;;;;;;28.40;13.50;;;5.80;99.90;;;;;;4996650;28;20360;-74
2024/03/07 04:04:52;;;;;;;28.70;13.40;;;5.70;99.90;;;;;;4978374;28;20027;-75
2024/03/07 04:07:18;;;;;;;28.30;13.10;;;5.70;99.90;;;;;;4996560;28;20034;-75
2024/03/07 04:09:45;;;;;;;30.00;13.88;;;5.70;99.90;;;;;;4978497;28;20402;-75
2024/03/07 04:12:11;;;;;;;27.47;14.17;;;5.70;99.90;;;;;;4996400;28;20037;-75
2024/03/07 04:14:40;;;;;;;28.53;13.90;;;5.70;99.90;;;;;;4978488;28;20026;-75
2024/03/07 04:17:11;;;;;;;30.37;13.90;;;5.60;99.90;;;;;;4978910;28;20122;-75
2024/03/07 04:19:41;;;;;;;28.52;13.63;;;5.70;99.90;;;;;;4995948;28;20022;-75
2024/03/07 04:22:08;;;;;;;32.53;14.90;;;5.60;99.90;;;;;;4996294;28;20037;-75
2024/03/07 04:24:35;;;;;;;29.07;14.27;;;5.50;99.90;;;;;;4978340;28;20030;-76
2024/03/07 04:27:03;;;;;;;33.73;15.40;;;5.50;99.90;;;;;;4978742;28;20073;-76
2024/03/07 04:29:30;;;;;;;31.27;14.17;;;5.50;99.90;;;;;;4996119;28;20031;-81
2024/03/07 04:31:55;;;;;;;30.00;14.27;;;5.40;99.90;;;;;;4978723;28;20030;-76
2024/03/07 04:34:21;;;;;;;29.80;14.67;;;5.40;99.90;;;;;;4978384;28;20053;-76
2024/03/07 04:36:47;;;;;;;33.50;14.87;;;5.40;99.90;;;;;;4978159;28;20044;-75
2024/03/07 04:39:32;;;;;;;31.97;14.00;;;5.40;99.90;;;;;;4978637;28;20066;-75
2024/03/07 04:42:01;;;;;;;31.10;14.33;;;5.40;99.90;;;;;;4978885;28;20471;-76
2024/03/07 04:44:31;;;;;;;31.93;14.67;;;5.40;99.90;;;;;;4995992;28;20027;-76
2024/03/07 04:46:57;;;;;;;32.73;14.30;;;5.30;99.90;;;;;;4995608;28;20530;-76
2024/03/07 04:49:26;;;;;;;34.00;15.13;;;5.30;99.90;;;;;;4995867;28;20034;-76
2024/03/07 04:51:53;;;;;;;31.93;14.67;;;5.20;99.90;;;;;;4995483;28;20026;-76
2024/03/07 04:54:19;;;;;;;32.07;15.17;;;5.20;99.90;;;;;;4978483;28;20464;-75
2024/03/07 04:56:46;;;;;;;33.13;14.80;;;5.10;99.90;;;;;;4977871;28;20044;-75
2024/03/07 04:59:12;;;;;;;32.63;16.23;;;5.10;99.90;;;;;;4978190;28;20455;-76
2024/03/07 05:01:42;;;;;;;32.97;15.07;;;5.10;99.90;;;;;;4977601;28;20042;-76
2024/03/07 05:04:08;;;;;;;35.10;15.23;;;5.20;99.90;;;;;;4995683;28;20034;-76
2024/03/07 05:06:34;;;;;;;33.37;14.60;;;5.10;99.90;;;;;;4994702;28;20042;-76
2024/03/07 05:09:03;;;;;;;33.83;14.67;;;5.10;99.90;;;;;;4978264;28;20030;-75
2024/03/07 05:11:36;;;;;;;32.83;14.83;;;5.10;99.90;;;;;;4977341;28;20037;-75
2024/03/07 05:14:03;;;;;;;29.67;14.57;;;5.00;99.90;;;;;;4978196;28;20149;-75
2024/03/07 05:16:29;;;;;;;33.23;15.10;;;5.00;99.90;;;;;;4977919;28;20034;-76
2024/03/07 05:18:59;;;;;;;33.10;14.93;;;5.00;99.90;;;;;;4977592;28;20435;-75
2024/03/07 05:21:37;;;;;;;34.00;14.63;;;5.00;99.90;;;;;;4977897;28;20029;-76
2024/03/07 05:24:04;;;;;;;37.93;15.73;;;5.00;99.90;;;;;;4978091;28;20404;-76
2024/03/07 05:26:33;;;;;;;28.97;15.00;;;4.90;99.90;;;;;;4995176;28;20031;-76
2024/03/07 05:29:05;;;;;;;34.67;15.77;;;4.90;99.90;;;;;;4977988;28;20026;-75
2024/03/07 05:31:35;;;;;;;33.87;14.77;;;4.80;99.90;;;;;;4977218;28;20109;-74
2024/03/07 05:34:03;;;;;;;31.80;14.17;;;4.80;99.90;;;;;;4994922;28;20053;-75
2024/03/07 05:36:32;;;;;;;36.77;14.50;;;4.70;99.90;;;;;;4977706;28;20041;-75
2024/03/07 05:38:59;;;;;;;30.63;14.00;;;4.70;99.90;;;;;;4976861;28;20088;-76
2024/03/07 05:41:28;;;;;;;34.67;14.70;;;4.70;99.90;;;;;;4977573;28;20049;-76
2024/03/07 05:43:54;;;;;;;34.63;14.93;;;4.70;99.90;;;;;;4994622;28;20118;-76
2024/03/07 05:46:20;;;;;;;29.93;14.07;;;4.60;99.90;;;;;;4977487;28;20161;-76
2024/03/07 05:48:49;;;;;;;33.27;15.17;;;4.70;99.90;;;;;;4977175;28;20434;-75
2024/03/07 05:51:15;;;;;;;28.50;13.67;;;4.70;99.90;;;;;;4977483;28;20030;-76
2024/03/07 05:53:41;;;;;;;32.43;14.20;;;4.70;99.90;;;;;;4976908;28;20403;-76
2024/03/07 05:56:08;;;;;;;30.27;14.27;;;4.70;99.90;;;;;;4977296;28;20030;-76
2024/03/07 05:58:33;;;;;;;29.73;13.83;;;4.60;99.90;;;;;;4994832;28;20077;-78
2024/03/07 06:00:59;;;;;;;32.17;14.27;;;4.60;99.90;;;;;;4976754;28;20072;-76
2024/03/07 06:03:25;;;;;;;31.53;13.87;;;4.60;99.90;;;;;;4977136;28;20037;-76
2024/03/07 06:05:51;;;;;;;32.77;14.37;;;4.60;99.90;;;;;;4976747;28;20045;-77
2024/03/07 06:08:21;;;;;;;33.37;14.50;;;4.60;99.90;;;;;;4977878;28;20034;-77
2024/03/07 06:10:47;;;;;;;32.60;14.77;;;4.60;99.90;;;;;;4994215;28;20081;-75
2024/03/07 06:13:18;;;;;;;35.97;14.27;;;4.50;99.90;;;;;;4995062;28;20506;-77
2024/03/07 06:15:44;;;;;;;32.17;14.57;;;4.50;99.90;;;;;;4977033;28;20113;-78
2024/03/07 06:18:14;;;;;;;31.90;14.30;;;4.50;99.90;;;;;;4977179;28;20027;-76
2024/03/07 06:20:40;;;;;;;36.30;14.80;;;4.50;99.90;;;;;;4976483;28;20033;-79
2024/03/07 06:23:06;;;;;;;33.53;15.00;;;4.50;99.90;;;;;;4976514;28;20038;-77
2024/03/07 06:25:34;;;;;;;34.00;14.60;;;4.50;99.90;;;;;;4977075;28;20122;-77
2024/03/07 06:28:10;;;;;;;32.00;14.67;;;4.50;99.90;;;;;;4976706;28;20030;-77
2024/03/07 06:30:39;;;;;;;32.37;14.80;;;4.40;99.90;;;;;;4977454;28;20034;-77
2024/03/07 06:33:05;;;;;;;30.23;14.33;;;4.40;99.90;;;;;;4976911;28;20423;-78
2024/03/07 06:35:31;;;;;;;32.13;14.83;;;4.40;99.90;;;;;;4976906;28;20050;-78
2024/03/07 06:37:56;;;;;;;33.40;15.03;;;4.40;99.90;;;;;;4977183;28;20373;-77
2024/03/07 06:40:22;;;;;;;30.73;13.87;;;4.40;99.90;;;;;;4976619;28;20125;-77
2024/03/07 06:42:48;;;;;;;30.13;14.40;;;4.40;99.90;;;;;;4976327;28;20037;-80
2024/03/07 06:45:15;;;;;;;35.80;14.63;;;4.40;99.90;;;;;;4976481;28;20032;-78
2024/03/07 06:47:41;;;;;;;31.83;14.10;;;4.40;99.90;;;;;;4976046;28;20084;-77
2024/03/07 06:50:09;;;;;;;31.53;13.83;;;4.40;99.90;;;;;;4977089;28;20027;-77
2024/03/07 06:52:35;;;;;;;30.80;15.13;;;4.40;99.90;;;;;;4976901;28;20030;-77
2024/03/07 06:55:03;;;;;;;30.17;13.77;;;4.40;99.90;;;;;;4976528;28;20080;-77
2024/03/07 06:57:29;;;;;;;31.40;13.83;;;4.50;99.90;;;;;;4976499;28;20069;-77
2024/03/07 06:59:55;;;;;;;26.83;13.00;;;4.50;99.90;;;;;;4976822;28;20030;-77
2024/03/07 07:02:21;;;;;;;29.40;13.67;;;4.50;99.90;;;;;;4994357;28;20026;-77
2024/03/07 07:04:47;;;;;;;27.97;13.50;;;4.50;99.90;;;;;;4976691;28;20041;-77
2024/03/07 07:07:14;;;;;;;29.87;13.67;;;4.50;99.90;;;;;;4993943;28;20035;-76
2024/03/07 07:09:40;;;;;;;31.10;14.30;;;4.50;99.90;;;;;;4976554;28;20069;-82
2024/03/07 07:12:06;;;;;;;31.10;13.60;;;4.50;99.90;;;;;;4976923;28;20027;-77
2024/03/07 07:14:32;;;;;;;29.77;13.80;;;4.50;99.90;;;;;;4976960;28;20121;-77
2024/03/07 07:16:59;;;;;;;30.87;13.73;;;4.60;99.90;;;;;;4976131;28;20058;-77
2024/03/07 07:19:24;;;;;;;27.60;13.17;;;4.50;99.90;;;;;;4976738;28;20550;-77
2024/03/07 07:21:53;;;;;;;30.37;13.53;;;4.60;99.90;;;;;;4976370;28;20065;-77
2024/03/07 07:24:23;;;;;;;30.20;13.57;;;4.60;99.90;;;;;;4976839;28;20053;-76
2024/03/07 07:26:50;;;;;;;28.97;13.00;;;4.60;99.90;;;;;;4976550;28;20053;-76
2024/03/07 07:29:15;;;;;;;30.83;13.33;;;4.70;99.90;;;;;;4976607;28;20034;-77
2024/03/07 07:31:41;;;;;;;28.87;13.80;;;4.70;99.90;;;;;;4976160;28;20089;-78
2024/03/07 07:34:07;;;;;;;26.97;13.13;;;4.70;99.90;;;;;;4976814;28;20055;-76
2024/03/07 07:36:32;;;;;;;29.80;13.20;;;4.80;99.90;;;;;;4997716;28;20045;-76
2024/03/07 07:38:58;;;;;;;29.07;14.03;;;4.80;99.90;;;;;;4980029;28;20081;-77
2024/03/07 07:41:24;;;;;;;30.03;12.80;;;4.80;99.90;;;;;;4980220;28;20034;-77
2024/03/07 07:43:50;;;;;;;26.80;12.77;;;4.80;99.90;;;;;;4979853;28;20431;-76
2024/03/07 07:46:17;;;;;;;24.33;12.17;;;4.90;99.90;;;;;;4980064;28;20514;-77
2024/03/07 07:48:43;;;;;;;24.70;12.20;;;5.00;99.90;;;;;;4980164;28;20465;-78
2024/03/07 07:51:09;;;;;;;24.10;11.87;;;5.00;99.90;;;;;;4979985;28;20068;-76
2024/03/07 07:53:35;;;;;;;25.07;11.67;;;5.00;99.90;;;;;;4997178;28;20054;-77
2024/03/07 07:56:01;;;;;;;27.43;12.10;;;5.10;99.90;;;;;;4997008;28;20452;-77
2024/03/07 07:58:26;;;;;;;27.43;12.00;;;5.10;99.90;;;;;;4979961;28;20038;-76
2024/03/07 08:00:52;;;;;;;24.20;11.33;;;5.10;99.90;;;;;;4979519;28;20060;-77
2024/03/07 08:03:18;;;;;;;22.50;11.77;;;5.10;99.90;;;;;;4980043;28;20022;-77
2024/03/07 08:05:44;;;;;;;24.53;12.30;;;5.20;99.90;;;;;;4979493;28;20124;-78
2024/03/07 08:08:13;;;;;;;26.93;12.37;;;5.20;99.90;;;;;;4997352;28;20033;-77
2024/03/07 08:10:41;;;;;;;30.87;11.87;;;5.20;99.90;;;;;;4980007;28;20076;-77
2024/03/07 08:13:07;;;;;;;24.60;11.10;;;5.30;99.90;;;;;;4996850;28;20053;-77
2024/03/07 08:15:33;;;;;;;21.43;10.67;;;5.30;99.90;;;;;;4979505;28;20030;-77
2024/03/07 08:17:59;;;;;;;22.70;11.10;;;5.30;99.90;;;;;;4996553;28;20030;-77
2024/03/07 08:20:26;;;;;;;24.73;11.43;;;5.40;99.90;;;;;;4979823;28;20029;-77
2024/03/07 08:22:53;;;;;;;23.13;11.13;;;5.30;99.90;;;;;;4978897;28;20048;-77
2024/03/07 08:25:20;;;;;;;25.90;11.30;;;5.30;99.90;;;;;;4997055;28;20026;-77
2024/03/07 08:27:47;;;;;;;23.57;10.80;;;5.40;99.90;;;;;;4996345;28;20030;-78
2024/03/07 08:30:15;;;;;;;26.70;11.20;;;5.50;99.90;;;;;;4979527;28;20501;-77
2024/03/07 08:32:52;;;;;;;22.90;11.43;;;5.50;99.90;;;;;;4979574;28;20052;-77
2024/03/07 08:35:18;;;;;;;23.17;11.80;;;5.60;99.90;;;;;;4979200;28;20398;-77
2024/03/07 08:37:46;;;;;;;25.73;11.27;;;5.60;99.90;;;;;;4979375;28;20034;-78
2024/03/07 08:40:19;;;;;;;21.83;9.97;;;5.60;99.90;;;;;;4979409;28;20038;-77
2024/03/07 08:42:46;;;;;;;24.73;10.93;;;5.60;99.90;;;;;;4979019;28;20031;-86
2024/03/07 08:45:16;;;;;;;21.20;10.20;;;5.60;99.90;;;;;;4979502;28;20120;-77
2024/03/07 08:47:43;;;;;;;22.40;10.10;;;5.70;99.90;;;;;;4995510;28;20034;-77
2024/03/07 08:50:09;;;;;;;21.03;11.00;;;5.70;99.90;;;;;;4978873;28;20033;-77
2024/03/07 08:52:39;;;;;;;20.17;10.43;;;5.80;99.90;;;;;;4979189;28;20081;-76
2024/03/07 08:55:09;;;;;;;22.40;10.33;;;5.80;99.90;;;;;;4995758;28;20061;-77
2024/03/07 08:57:34;;;;;;;20.43;10.07;;;5.90;99.90;;;;;;4996071;28;20048;-76
2024/03/07 09:00:01;;;;;;;24.40;9.97;;;5.90;99.90;;;;;;4995637;28;20454;-77
2024/03/07 09:02:27;;;;;;;23.37;10.13;;;5.90;99.90;;;;;;4978759;28;20031;-78
2024/03/07 09:04:52;;;;;;;23.73;10.40;;;6.00;99.90;;;;;;4995980;28;20044;-76
2024/03/07 09:07:18;;;;;;;20.47;10.73;;;6.00;99.90;;;;;;4996087;28;20117;-76
2024/03/07 09:09:45;;;;;;;19.73;9.27;;;6.10;99.90;;;;;;4978577;28;20030;-77
2024/03/07 09:12:11;;;;;;;20.63;9.67;;;6.10;99.90;;;;;;4978233;28;20030;-76
2024/03/07 09:14:37;;;;;;;24.30;10.33;;;6.10;99.90;;;;;;4978246;28;20029;-76
2024/03/07 09:17:04;;;;;;;20.53;9.57;;;6.10;99.90;;;;;;4995364;28;20035;-77
2024/03/07 09:19:31;;;;;;;22.00;10.20;;;6.20;99.90;;;;;;4995707;28;20154;-77
2024/03/07 09:21:56;;;;;;;21.70;10.33;;;6.30;99.90;;;;;;4995340;28;20030;-77
2024/03/07 09:24:22;;;;;;;20.93;10.13;;;6.30;99.90;;;;;;4978396;28;20033;-78
2024/03/07 09:26:56;;;;;;;18.87;9.57;;;6.40;99.90;;;;;;4977724;28;20113;-79
2024/03/07 09:29:22;;;;;;;21.30;8.90;;;6.40;99.90;;;;;;4995856;28;20030;-77
2024/03/07 09:31:53;;;;;;;20.70;9.90;;;6.40;99.90;;;;;;4977878;28;20058;-82
2024/03/07 09:34:20;;;;;;;23.75;10.15;;;6.50;99.90;;;;;;4978106;28;20046;-77
2024/03/07 09:36:50;;;;;;;18.70;9.27;;;6.50;99.90;;;;;;4978119;28;20042;-77
2024/03/07 09:39:21;;;;;;;21.43;10.90;;;6.50;99.90;;;;;;4995248;28;20402;-77
2024/03/07 09:41:46;;;;;;;16.65;8.95;;;6.50;99.90;;;;;;4978337;28;20026;-77
2024/03/07 09:44:22;;;;;;;20.23;10.03;;;6.60;99.90;;;;;;4995012;28;20038;-77
2024/03/07 09:46:49;;;;;;;22.23;9.63;;;6.60;99.90;;;;;;4978060;28;20041;-77
2024/03/07 09:49:15;;;;;;;23.23;10.50;;;6.70;99.90;;;;;;4995271;28;20475;-77
2024/03/07 09:51:44;;;;;;;20.17;9.80;;;6.80;99.90;;;;;;4995303;28;20030;-77
2024/03/07 09:54:10;;;;;;;19.53;10.43;;;6.80;99.90;;;;;;4977198;28;20030;-77
2024/03/07 09:56:37;;;;;;;20.87;10.27;;;6.80;99.90;;;;;;4977531;28;20506;-77
2024/03/07 09:59:04;;;;;;;20.63;10.50;;;6.80;99.90;;;;;;4976835;28;20125;-77
2024/03/07 10:01:36;;;;;;;23.47;11.37;;;6.90;99.90;;;;;;4977409;28;20026;-77
2024/03/07 10:04:11;;;;;;;23.15;10.93;;;7.00;99.90;;;;;;4977069;28;20034;-77
2024/03/07 10:06:41;;;;;;;18.05;9.82;;;7.00;99.90;;;;;;4977626;28;20069;-77
2024/03/07 10:09:07;;;;;;;22.92;10.73;;;7.10;99.90;;;;;;4977061;28;20041;-77
2024/03/07 10:11:37;;;;;;;20.53;10.73;;;7.00;99.90;;;;;;4977416;28;20055;-77
2024/03/07 10:14:07;;;;;;;22.23;11.02;;;7.10;99.90;;;;;;4977122;28;20037;-77
2024/03/07 10:16:33;;;;;;;22.75;11.32;;;7.10;99.90;;;;;;4977566;28;20124;-77
2024/03/07 10:19:00;;;;;;;23.73;10.80;;;7.10;99.90;;;;;;4994197;28;20054;-78
2024/03/07 10:21:26;;;;;;;24.40;10.80;;;7.10;99.90;;;;;;4977154;28;20465;-77
2024/03/07 10:24:06;;;;;;;23.83;11.38;;;7.10;99.90;;;;;;4976750;28;20037;-79
2024/03/07 10:26:37;;;;;;;21.77;10.30;;;7.10;99.90;;;;;;4977428;28;20038;-78
2024/03/07 10:29:07;;;;;;;23.10;11.98;;;7.20;99.90;;;;;;4976636;28;20062;-78
2024/03/07 10:31:34;;;;;;;23.63;11.00;;;7.30;99.90;;;;;;4976801;28;20037;-77
2024/03/07 10:34:03;;;;;;;26.92;11.45;;;7.40;99.90;;;;;;4972980;28;20058;-78
2024/03/07 10:36:32;;;;;;;23.45;11.13;;;7.50;99.90;;;;;;4974726;28;20037;-77
2024/03/07 10:39:03;;;;;;;25.50;11.07;;;7.70;99.90;;;;;;4973108;28;20030;-78
2024/03/07 10:41:32;;;;;;;23.80;11.82;;;7.90;99.90;;;;;;4973529;28;20488;-78
2024/03/07 10:43:58;;;;;;;24.02;11.90;;;8.00;99.90;;;;;;4973206;28;20121;-78
2024/03/07 10:46:26;;;;;;;22.75;10.40;;;8.10;99.90;;;;;;4973864;28;20089;-78
2024/03/07 10:48:58;;;;;;;25.83;12.32;;;8.20;99.90;;;;;;4973150;28;20030;-84
2024/03/07 10:51:40;;;;;;;25.65;13.15;;;8.30;99.90;;;;;;4974574;28;20031;-77
2024/03/07 10:54:24;;;;;;;25.80;12.40;;;8.40;99.90;;;;;;4973016;28;20042;-77
2024/03/07 10:57:11;;;;;;;28.92;12.98;;;8.70;99.90;;;;;;4973567;28;20542;-77
2024/03/07 10:59:41;;;;;;;24.77;12.52;;;8.70;99.90;;;;;;4973208;28;20065;-77
2024/03/07 11:02:27;;;;;;;26.52;12.38;;;8.80;99.90;;;;;;4972800;28;20123;-78
2024/03/07 11:04:53;;;;;;;26.50;13.38;;;8.90;99.90;;;;;;4972966;28;20176;-87
2024/03/07 11:07:21;;;;;;;26.00;12.55;;;8.90;99.90;;;;;;4973400;28;20043;-77
2024/03/07 11:09:51;;;;;;;26.27;12.43;;;8.90;99.90;;;;;;4972522;28;20118;-77
2024/03/07 11:12:20;;;;;;;26.50;13.20;;;8.90;99.90;;;;;;4973927;28;20023;-78
2024/03/07 11:14:48;;;;;;;29.55;13.15;;;9.00;99.90;;;;;;4973220;28;20057;-78
2024/03/07 11:17:15;;;;;;;23.98;12.00;;;8.80;99.90;;;;;;4972661;28;20395;-78
2024/03/07 11:19:42;;;;;;;27.00;13.25;;;8.70;99.90;;;;;;4956785;28;20035;-77
2024/03/07 11:22:18;;;;;;;30.20;13.70;;;8.80;99.90;;;;;;4973891;28;20026;-78
2024/03/07 11:24:45;;;;;;;24.48;12.07;;;8.90;99.90;;;;;;4973166;28;20324;-78
2024/03/07 11:27:14;;;;;;;25.10;12.80;;;9.10;99.90;;;;;;4972519;28;20081;-77
2024/03/07 11:29:43;;;;;;;26.58;13.38;;;9.20;99.90;;;;;;4972864;28;20131;-78
2024/03/07 11:32:13;;;;;;;28.08;13.10;;;9.30;99.90;;;;;;4972434;28;20019;-78
2024/03/07 11:34:41;;;;;;;29.00;12.98;;;9.20;99.90;;;;;;4972582;28;20081;-78
2024/03/07 11:37:17;;;;;;;26.63;13.18;;;9.30;99.90;;;;;;4972604;28;20035;-77
2024/03/07 11:39:47;;;;;;;25.75;12.00;;;9.20;99.90;;;;;;4972870;28;20580;-77
2024/03/07 11:42:33;;;;;;;27.92;12.98;;;9.30;99.90;;;;;;4973543;28;20269;-77
2024/03/07 11:44:59;;;;;;;28.05;13.27;;;9.30;99.90;;;;;;4972498;28;20030;-77
2024/03/07 11:47:29;;;;;;;28.75;12.77;;;9.30;99.90;;;;;;4974084;28;20035;-78
2024/03/07 11:49:57;;;;;;;28.90;13.38;;;9.30;99.90;;;;;;4973730;28;20031;-77
2024/03/07 11:52:23;;;;;;;26.35;12.68;;;9.50;99.90;;;;;;4974083;28;20026;-78
2024/03/07 11:54:50;;;;;;;26.13;13.48;;;9.60;99.90;;;;;;4972867;28;20117;-77
2024/03/07 11:57:19;;;;;;;23.25;12.40;;;9.70;99.90;;;;;;4972325;28;20522;-77
2024/03/07 11:59:47;;;;;;;24.67;12.13;;;9.70;99.90;;;;;;4972664;28;20027;-78
2024/03/07 12:02:17;;;;;;;26.77;12.82;;;9.90;99.90;;;;;;4972303;28;20030;-77
2024/03/07 12:04:44;;;;;;;27.98;13.27;;;10.00;99.90;;;;;;4972770;28;20034;-77
2024/03/07 12:07:17;;;;;;;24.52;13.23;;;10.10;99.90;;;;;;4972131;28;20031;-77
2024/03/07 12:09:45;;;;;;;25.83;12.18;;;10.10;99.90;;;;;;4973744;28;20034;-77
2024/03/07 12:12:12;;;;;;;28.45;13.20;;;10.10;99.90;;;;;;4972046;28;20055;-77
2024/03/07 12:14:38;;;;;;;25.80;11.77;;;10.10;99.90;;;;;;4973822;28;20547;-77
2024/03/07 12:17:05;;;;;;;28.15;13.15;;;10.10;99.90;;;;;;4972270;28;20033;-77
2024/03/07 12:19:35;;;;;;;24.08;12.27;;;10.20;99.90;;;;;;4972579;28;20027;-78
2024/03/07 12:22:12;;;;;;;30.45;12.52;;;10.20;99.90;;;;;;4973307;28;20478;-78
2024/03/07 12:24:41;;;;;;;28.33;12.75;;;10.20;99.90;;;;;;4975967;28;20365;-76
2024/03/07 12:27:09;;;;;;;25.15;13.25;;;10.30;99.90;;;;;;4975265;28;20030;-76
2024/03/07 12:29:43;;;;;;;27.25;13.27;;;10.30;99.90;;;;;;4975941;28;20126;-76
2024/03/07 12:32:13;;;;;;;31.73;13.90;;;10.30;99.90;;;;;;4976558;28;20134;-76
2024/03/07 12:34:48;;;;;;;27.08;13.18;;;10.30;99.90;;;;;;4975364;28;20068;-76
2024/03/07 12:37:16;;;;;;;24.85;12.85;;;10.20;99.90;;;;;;4975271;28;20043;-77
2024/03/07 12:39:46;;;;;;;25.85;13.02;;;10.30;99.90;;;;;;4976758;28;20077;-77
2024/03/07 12:42:22;;;;;;;27.17;12.68;;;10.30;99.90;;;;;;4974816;28;20038;-77